Terminal Aerodrome Forecast
Issued by NWS Cleveland, OH

Home | Current Version | Previous Version | Text Only | Print | Product List | Glossary Off
Versions: 1 2 3 4 5 6 7 8 9 10 11 12 13 14 15 16 17 18 19

000
FTUS41 KCLE 220500
TAFYNG
TAF
KYNG 220538Z 2206/2306 36010KT P6SM OVC008
      TEMPO 2206/2210 5SM -RA BR
     FM221200 36010KT P6SM OVC012
     FM221700 36010KT P6SM OVC025
     FM222100 36010KT P6SM BKN035
     FM230000 34006KT P6SM BKN035=

USA.gov is the U.S. government's official web portal to all federal, state and local government web resources and services.